createdAt,value
2016-08-22T00:00:08.273Z,70
2016-08-22T00:00:32.414Z,69.8
2016-08-22T00:00:56.536Z,69.9
2016-08-22T00:01:20.642Z,70.2
2016-08-22T00:01:44.763Z,69.9
2016-08-22T00:02:08.871Z,70.2
2016-08-22T00:02:33.014Z,70.1
2016-08-22T00:02:57.244Z,70.1
2016-08-22T00:03:21.365Z,69.9
2016-08-22T00:03:45.505Z,69.7
2016-08-22T00:04:09.688Z,70.2
2016-08-22T00:04:33.803Z,70
2016-08-22T00:04:57.928Z,70.2
2016-08-22T00:05:22.065Z,70.1
2016-08-22T00:05:46.200Z,69.6
2016-08-22T00:06:10.323Z,69.9
2016-08-22T00:06:34.445Z,70.1
2016-08-22T00:06:58.550Z,70.2
2016-08-22T00:07:22.699Z,70.1
2016-08-22T00:07:46.830Z,70.2
2016-08-22T00:08:10.938Z,70.3
2016-08-22T00:08:35.072Z,70.1
2016-08-22T00:08:59.197Z,70
2016-08-22T00:09:23.318Z,69.8
2016-08-22T00:09:47.463Z,69.8
2016-08-22T00:10:11.593Z,70.2
2016-08-22T00:10:35.719Z,70.1
2016-08-22T00:10:59.841Z,70
2016-08-22T00:11:23.983Z,69.9
2016-08-22T00:11:48.106Z,70.1
2016-08-22T00:12:12.213Z,69.8
2016-08-22T00:12:36.330Z,70.2
2016-08-22T00:13:00.468Z,69.8
2016-08-22T00:13:24.595Z,69.8
2016-08-22T00:13:48.714Z,69.9
2016-08-22T00:14:12.838Z,70.3
2016-08-22T00:14:36.973Z,70.1
2016-08-22T00:15:01.096Z,69.6
2016-08-22T00:15:25.213Z,69.9
2016-08-22T00:15:49.341Z,70
2016-08-22T00:16:13.472Z,69.8
2016-08-22T00:16:37.592Z,69.8
2016-08-22T00:17:01.712Z,70.1
2016-08-22T00:17:25.816Z,70.3
2016-08-22T00:17:49.938Z,70.8
2016-08-22T00:18:14.080Z,70
2016-08-22T00:18:38.201Z,70
2016-08-22T00:19:02.333Z,70.1
2016-08-22T00:19:26.454Z,70.3
2016-08-22T00:19:50.572Z,70
2016-08-22T00:20:14.694Z,69.9
2016-08-22T00:20:38.842Z,70
2016-08-22T00:21:02.976Z,70
2016-08-22T00:21:27.097Z,69.9
2016-08-22T00:21:51.214Z,70
2016-08-22T00:22:15.341Z,70.2
2016-08-22T00:22:39.477Z,69.8
2016-08-22T00:23:03.581Z,70.1
2016-08-22T00:23:27.710Z,69.9
2016-08-22T00:23:51.855Z,69.8
2016-08-22T00:24:15.980Z,69.7
2016-08-22T00:24:40.091Z,69.8
2016-08-22T00:25:04.203Z,70.1
2016-08-22T00:25:28.310Z,70.1
2016-08-22T00:25:52.465Z,69.8
2016-08-22T00:26:16.596Z,70
2016-08-22T00:26:40.783Z,70
2016-08-22T00:27:04.914Z,70.8
2016-08-22T00:27:29.043Z,70.6
2016-08-22T00:27:53.159Z,70.5
2016-08-22T00:28:17.274Z,70.6
2016-08-22T00:28:41.402Z,70.3
2016-08-22T00:29:05.534Z,70.4
2016-08-22T00:29:29.639Z,70.6
2016-08-22T00:29:53.760Z,70.4
2016-08-22T00:30:17.890Z,70.4
2016-08-22T00:30:41.987Z,70.4
2016-08-22T00:31:06.089Z,70.8
2016-08-22T00:31:30.219Z,70.6
2016-08-22T00:31:54.357Z,70.7
2016-08-22T00:32:18.488Z,70.5
2016-08-22T00:32:42.602Z,70.6
2016-08-22T00:33:06.763Z,70.8
2016-08-22T00:33:30.870Z,70.8
2016-08-22T00:33:54.990Z,71
2016-08-22T00:34:19.116Z,71.1
2016-08-22T00:34:43.238Z,70.6
2016-08-22T00:35:07.382Z,70.6
2016-08-22T00:35:31.505Z,70.7
2016-08-22T00:35:55.658Z,71.2
2016-08-22T00:36:19.785Z,71
2016-08-22T00:36:43.876Z,71.1
2016-08-22T00:37:08.008Z,71.4
2016-08-22T00:37:32.118Z,71.1
2016-08-22T00:37:56.245Z,70.8
2016-08-22T00:38:20.364Z,71.3
2016-08-22T00:38:44.517Z,70.9
2016-08-22T00:39:08.684Z,71
2016-08-22T00:39:32.838Z,71.4
2016-08-22T00:39:56.937Z,71.2
2016-08-22T00:40:21.057Z,71.1
2016-08-22T00:40:45.227Z,70.9
2016-08-22T00:41:09.369Z,71.2
2016-08-22T00:41:33.471Z,71.6
2016-08-22T00:41:57.626Z,71.4
2016-08-22T00:42:21.762Z,71.4
2016-08-22T00:42:45.890Z,70.8
2016-08-22T00:43:10.059Z,70.8
2016-08-22T00:43:34.183Z,70.9
2016-08-22T00:43:58.305Z,70.9
2016-08-22T00:44:22.451Z,70.8
2016-08-22T00:44:46.562Z,71.1
2016-08-22T00:45:10.702Z,70.9
2016-08-22T00:45:34.825Z,71
2016-08-22T00:45:58.961Z,71
2016-08-22T00:46:23.134Z,70.9
2016-08-22T00:46:47.268Z,71.3
2016-08-22T00:47:11.424Z,70.7
2016-08-22T00:47:35.533Z,71
2016-08-22T00:47:59.712Z,70.8
2016-08-22T00:48:23.834Z,70.9
2016-08-22T00:48:47.964Z,70.8
2016-08-22T00:49:12.089Z,70.9
2016-08-22T00:49:36.255Z,71.2
2016-08-22T00:50:00.382Z,70.9
2016-08-22T00:50:24.482Z,71
2016-08-22T00:50:48.605Z,70.8
2016-08-22T00:51:12.724Z,70.8
2016-08-22T00:51:36.851Z,71
2016-08-22T00:52:00.963Z,70.9
2016-08-22T00:52:25.071Z,71
2016-08-22T00:52:49.198Z,71.3
2016-08-22T00:53:13.318Z,70.9
2016-08-22T00:53:37.448Z,70.9
2016-08-22T00:54:01.543Z,71.2
2016-08-22T00:54:25.670Z,70.8
2016-08-22T00:54:49.785Z,71.3
2016-08-22T00:55:13.905Z,71.5
2016-08-22T00:55:38.045Z,71.4
2016-08-22T00:56:02.166Z,71.2
2016-08-22T00:56:26.298Z,71.4
2016-08-22T00:56:50.486Z,71.5
2016-08-22T00:57:14.626Z,71.6
2016-08-22T00:57:38.731Z,71.6
2016-08-22T00:58:04.638Z,71.5
2016-08-22T00:58:28.754Z,71.5
2016-08-22T00:58:52.887Z,71.4
2016-08-22T00:59:17.027Z,71.6
2016-08-22T00:59:41.150Z,71.4
2016-08-22T01:00:05.254Z,71.6
2016-08-22T01:00:29.453Z,71.6
2016-08-22T01:00:53.590Z,71.3
2016-08-22T01:01:17.710Z,71.5
2016-08-22T01:01:41.861Z,71.3
2016-08-22T01:02:05.996Z,71.3
2016-08-22T01:02:30.134Z,71.4
2016-08-22T01:02:54.245Z,71.6
2016-08-22T01:03:18.396Z,71.5
2016-08-22T01:03:42.527Z,71.4
2016-08-22T01:04:06.643Z,71.6
2016-08-22T01:04:30.784Z,71.4
2016-08-22T01:04:54.922Z,71.3
2016-08-22T01:05:19.069Z,71.5
2016-08-22T01:05:43.197Z,71.5
2016-08-22T01:06:07.292Z,71.3
2016-08-22T01:06:31.410Z,71.5
2016-08-22T01:06:55.540Z,71.3
2016-08-22T01:07:19.689Z,71.2
2016-08-22T01:07:43.828Z,71.2
2016-08-22T01:08:07.962Z,71
2016-08-22T01:08:32.136Z,71.9
2016-08-22T01:08:56.236Z,71.8
2016-08-22T01:09:20.387Z,71.8
2016-08-22T01:09:44.516Z,71.7
2016-08-22T01:10:08.659Z,71.7
2016-08-22T01:10:32.765Z,71.8
2016-08-22T01:10:56.916Z,71.6
2016-08-22T01:11:21.059Z,71.6
2016-08-22T01:11:45.164Z,72.1
2016-08-22T01:12:09.256Z,71.9
2016-08-22T01:12:33.388Z,71.7
2016-08-22T01:12:57.523Z,71.8
2016-08-22T01:13:21.641Z,71.9
2016-08-22T01:13:45.764Z,71.6
2016-08-22T01:14:09.913Z,72.1
2016-08-22T01:14:34.016Z,71.8
2016-08-22T01:14:58.120Z,71.9
2016-08-22T01:15:22.246Z,72
2016-08-22T01:15:46.404Z,72
2016-08-22T01:16:10.579Z,72
2016-08-22T01:16:34.710Z,71.9
2016-08-22T01:16:58.833Z,72
2016-08-22T01:17:22.969Z,72
2016-08-22T01:17:49.830Z,71.8
2016-08-22T01:18:13.930Z,71.8
2016-08-22T01:18:38.059Z,72
2016-08-22T01:19:02.188Z,72.1
2016-08-22T01:19:26.342Z,71.8
2016-08-22T01:19:50.467Z,71.9
2016-08-22T01:20:14.611Z,71.7
2016-08-22T01:20:38.743Z,72
2016-08-22T01:21:02.876Z,71.8
2016-08-22T01:21:27.030Z,72
2016-08-22T01:21:51.148Z,71.6
2016-08-22T01:22:15.282Z,71.8
2016-08-22T01:22:39.405Z,72
2016-08-22T01:23:03.560Z,71.9
2016-08-22T01:23:27.713Z,71.9
2016-08-22T01:23:51.839Z,71.5
2016-08-22T01:24:15.967Z,71.8
2016-08-22T01:24:40.082Z,72
2016-08-22T01:25:04.217Z,72
2016-08-22T01:25:28.366Z,72
2016-08-22T01:25:52.494Z,71.8
2016-08-22T01:26:16.596Z,72.1
2016-08-22T01:26:40.714Z,72.1
2016-08-22T01:27:04.850Z,72.4
2016-08-22T01:27:29.001Z,71.8
2016-08-22T01:27:53.126Z,72
2016-08-22T01:28:17.285Z,72
2016-08-22T01:28:41.415Z,71.9
2016-08-22T01:29:05.514Z,71.8
2016-08-22T01:29:29.627Z,71.9
2016-08-22T01:29:53.807Z,72.2
2016-08-22T01:30:17.938Z,71.7
2016-08-22T01:30:42.071Z,71.7
2016-08-22T01:31:06.211Z,71.8
2016-08-22T01:31:30.352Z,71.7
2016-08-22T01:31:54.468Z,71.9
2016-08-22T01:32:18.576Z,71.8
2016-08-22T01:32:42.735Z,71.7
2016-08-22T01:33:06.880Z,71.7
2016-08-22T01:33:31.026Z,71.8
2016-08-22T01:33:55.160Z,71.8
2016-08-22T01:34:19.286Z,71.6
2016-08-22T01:34:43.441Z,71.6
2016-08-22T01:35:07.552Z,71.6
2016-08-22T01:35:31.731Z,71.7
2016-08-22T01:35:55.870Z,71.8
2016-08-22T01:36:20.021Z,71.8
2016-08-22T01:36:44.152Z,72
2016-08-22T01:37:08.277Z,72
2016-08-22T01:37:32.417Z,72
2016-08-22T01:37:56.557Z,72.2
2016-08-22T01:38:20.679Z,71.9
2016-08-22T01:38:44.817Z,71.8
2016-08-22T01:39:08.938Z,71.9
2016-08-22T01:39:33.061Z,72
2016-08-22T01:39:57.167Z,71.9
2016-08-22T01:40:21.289Z,71.9
2016-08-22T01:40:45.438Z,71.9
2016-08-22T01:41:09.596Z,72
2016-08-22T01:41:33.733Z,72.2
2016-08-22T01:41:57.889Z,72
2016-08-22T01:42:22.006Z,72
2016-08-22T01:42:46.130Z,72
2016-08-22T01:43:10.242Z,72.1
2016-08-22T01:43:34.393Z,72
2016-08-22T01:43:58.532Z,72
2016-08-22T01:44:22.678Z,72
2016-08-22T01:44:46.795Z,72
2016-08-22T01:45:10.927Z,71.8
2016-08-22T01:45:35.058Z,71.9
2016-08-22T01:45:59.185Z,71.7
2016-08-22T01:46:23.295Z,71.7
2016-08-22T01:46:47.407Z,72
2016-08-22T01:47:11.527Z,72.2
2016-08-22T01:47:35.641Z,72
2016-08-22T01:47:59.753Z,72
2016-08-22T01:48:23.903Z,72
2016-08-22T01:48:47.999Z,71.6
2016-08-22T01:49:12.103Z,72.3
2016-08-22T01:49:36.232Z,72.3
2016-08-22T01:50:00.362Z,72.1
2016-08-22T01:50:24.500Z,72.2
2016-08-22T01:50:48.627Z,72.3
2016-08-22T01:51:12.821Z,72.3
2016-08-22T01:51:36.943Z,72.3
2016-08-22T01:52:01.071Z,72.3
2016-08-22T01:52:25.187Z,72.4
2016-08-22T01:52:49.320Z,72.3
2016-08-22T01:53:13.442Z,72.3
2016-08-22T01:53:37.571Z,72.3
2016-08-22T01:54:01.699Z,72.3
2016-08-22T01:54:25.798Z,72.2
2016-08-22T01:54:49.896Z,71.8
2016-08-22T01:55:14.051Z,72
2016-08-22T01:55:38.186Z,72.1
2016-08-22T01:56:02.318Z,72.4
2016-08-22T01:56:26.451Z,72.3
2016-08-22T01:56:50.558Z,71.9
2016-08-22T01:57:14.679Z,72.1
2016-08-22T01:57:38.798Z,72.4
2016-08-22T01:58:02.934Z,72.1
2016-08-22T01:58:27.035Z,71.9
2016-08-22T01:58:51.165Z,72
2016-08-22T01:59:15.296Z,72.2
2016-08-22T01:59:39.414Z,72.2
2016-08-22T02:00:03.526Z,72.2
2016-08-22T02:00:27.654Z,72.2
2016-08-22T02:00:51.801Z,72.3
2016-08-22T02:01:15.953Z,72.2
2016-08-22T02:01:40.090Z,72.9
2016-08-22T02:02:04.235Z,72
2016-08-22T02:02:28.358Z,72.2
2016-08-22T02:02:52.491Z,72
2016-08-22T02:03:16.614Z,72.1
2016-08-22T02:03:40.729Z,71.9
2016-08-22T02:04:04.881Z,72.1
2016-08-22T02:04:28.992Z,72
2016-08-22T02:04:53.123Z,72.2
2016-08-22T02:05:17.267Z,72.1
2016-08-22T02:05:41.398Z,72.1
2016-08-22T02:06:05.554Z,72.1
2016-08-22T02:06:29.661Z,72.4
2016-08-22T02:06:53.788Z,72.2
2016-08-22T02:07:17.921Z,72.2
2016-08-22T02:07:42.032Z,72.3
2016-08-22T02:08:06.147Z,72.3
2016-08-22T02:08:30.300Z,72.2
2016-08-22T02:08:54.449Z,72
2016-08-22T02:09:18.589Z,72.1
2016-08-22T02:09:42.704Z,71.9
2016-08-22T02:10:06.855Z,72
2016-08-22T02:10:30.980Z,72.1
2016-08-22T02:10:55.091Z,72.3
2016-08-22T02:11:19.230Z,72.2
2016-08-22T02:11:43.352Z,72.1
2016-08-22T02:12:07.482Z,72.3
2016-08-22T02:12:31.574Z,72.3
2016-08-22T02:12:55.687Z,72.2
2016-08-22T02:13:19.817Z,72.3
2016-08-22T02:13:43.989Z,72.2
2016-08-22T02:14:08.110Z,72.4
2016-08-22T02:14:32.227Z,72.4
2016-08-22T02:14:56.357Z,72.2
2016-08-22T02:15:20.495Z,72.2
2016-08-22T02:15:44.612Z,72.6
2016-08-22T02:16:08.750Z,72.2
2016-08-22T02:16:32.865Z,72.5
2016-08-22T02:16:56.976Z,72
2016-08-22T02:17:21.076Z,72.2
2016-08-22T02:17:45.202Z,71.9
2016-08-22T02:18:09.349Z,72.6
2016-08-22T02:18:33.474Z,72.8
2016-08-22T02:18:57.618Z,72.7
2016-08-22T02:19:21.754Z,71.9
2016-08-22T02:19:45.901Z,72
2016-08-22T02:20:10.018Z,72.3
2016-08-22T02:20:34.142Z,73.1
2016-08-22T02:20:58.259Z,72.9
2016-08-22T02:21:22.426Z,72.7
2016-08-22T02:21:46.564Z,72.9
2016-08-22T02:22:10.688Z,72.5
2016-08-22T02:22:34.848Z,72.4
2016-08-22T02:22:58.980Z,72.7
2016-08-22T02:23:23.128Z,72.9
2016-08-22T02:23:47.291Z,73
2016-08-22T02:24:11.423Z,72.9
2016-08-22T02:24:35.541Z,72.9
2016-08-22T02:24:59.671Z,73.1
2016-08-22T02:25:23.822Z,72.8
2016-08-22T02:25:47.960Z,73.3
2016-08-22T02:26:12.107Z,73.1
2016-08-22T02:26:36.226Z,73
2016-08-22T02:27:00.347Z,73.2
2016-08-22T02:27:24.452Z,73.2
2016-08-22T02:27:48.565Z,73.1
2016-08-22T02:28:12.681Z,72.9
2016-08-22T02:28:36.788Z,72.8
2016-08-22T02:29:00.952Z,72.9
2016-08-22T02:29:25.052Z,73.2
2016-08-22T02:29:49.185Z,73.2
2016-08-22T02:30:13.312Z,73
2016-08-22T02:30:37.425Z,73
2016-08-22T02:31:01.558Z,73.3
2016-08-22T02:31:25.702Z,73
2016-08-22T02:31:49.806Z,73.2
2016-08-22T02:32:13.952Z,73.2
2016-08-22T02:32:38.077Z,73
2016-08-22T02:33:02.202Z,72.9
2016-08-22T02:33:26.338Z,73.3
2016-08-22T02:33:50.454Z,73.3
2016-08-22T02:34:14.573Z,73.7
2016-08-22T02:34:38.705Z,73.7
2016-08-22T02:35:02.860Z,73.8
2016-08-22T02:35:26.985Z,73.8
2016-08-22T02:35:51.104Z,73.6
2016-08-22T02:36:15.237Z,73.8
2016-08-22T02:36:39.378Z,73.8
2016-08-22T02:37:03.525Z,73.5
2016-08-22T02:37:27.717Z,73.2
2016-08-22T02:37:51.860Z,73.5
2016-08-22T02:38:15.974Z,73.7
2016-08-22T02:38:40.106Z,73.4
2016-08-22T02:39:04.250Z,73.7
2016-08-22T02:39:28.405Z,73.7
2016-08-22T02:39:52.549Z,73.7
2016-08-22T02:40:16.685Z,73
2016-08-22T02:40:40.793Z,73.1
2016-08-22T02:41:04.978Z,73.2
2016-08-22T02:41:29.121Z,73
2016-08-22T02:41:53.259Z,73.3
2016-08-22T02:42:17.451Z,73.1
2016-08-22T02:42:41.595Z,73.6
2016-08-22T02:43:05.698Z,73.2
2016-08-22T02:43:29.818Z,73.5
2016-08-22T02:43:53.924Z,73.3
2016-08-22T02:44:18.079Z,73.2
2016-08-22T02:44:42.191Z,73.2
2016-08-22T02:45:06.325Z,73.8
2016-08-22T02:45:30.444Z,73.5
2016-08-22T02:45:54.577Z,73.5
2016-08-22T02:46:18.754Z,73.4
2016-08-22T02:46:42.911Z,73.4
2016-08-22T02:47:07.042Z,73.2
2016-08-22T02:47:31.175Z,73.2
2016-08-22T02:47:55.285Z,73.9
2016-08-22T02:48:19.426Z,73.9
2016-08-22T02:48:43.559Z,73.7
2016-08-22T02:49:07.664Z,73.9
2016-08-22T02:49:31.779Z,73.5
2016-08-22T02:49:55.880Z,73.8
2016-08-22T02:50:20.000Z,73.7
2016-08-22T02:50:44.105Z,73.9
2016-08-22T02:51:08.236Z,73.9
2016-08-22T02:51:32.412Z,73.8
2016-08-22T02:51:56.545Z,73.6
2016-08-22T02:52:20.671Z,74.3
2016-08-22T02:52:44.802Z,74.1
2016-08-22T02:53:08.935Z,73.9
2016-08-22T02:53:33.078Z,74
2016-08-22T02:53:57.177Z,73.8
2016-08-22T02:54:21.305Z,74.1
2016-08-22T02:54:45.415Z,73.6
2016-08-22T02:55:09.562Z,74
2016-08-22T02:55:33.687Z,74
2016-08-22T02:55:57.803Z,73.8
2016-08-22T02:56:21.952Z,73.9
2016-08-22T02:56:46.054Z,74.1
2016-08-22T02:57:10.150Z,74
2016-08-22T02:57:34.266Z,73.8
2016-08-22T02:57:58.370Z,74.1
2016-08-22T02:58:22.483Z,73.8
2016-08-22T02:58:46.649Z,74.1
2016-08-22T02:59:10.773Z,73.8
2016-08-22T02:59:34.925Z,74
2016-08-22T02:59:59.043Z,73.9
2016-08-22T03:00:23.171Z,74.8
2016-08-22T03:00:47.513Z,74.7
2016-08-22T03:01:11.664Z,73.9
2016-08-22T03:01:35.831Z,73.7
2016-08-22T03:01:59.960Z,73.4
2016-08-22T03:02:24.092Z,73.7
2016-08-22T03:02:48.201Z,74.1
2016-08-22T03:03:12.305Z,73.9
2016-08-22T03:03:36.422Z,73.7
2016-08-22T03:04:00.560Z,73.8
2016-08-22T03:04:24.675Z,73.8
2016-08-22T03:04:48.808Z,74
2016-08-22T03:05:12.942Z,73.8
2016-08-22T03:05:37.078Z,73.7
2016-08-22T03:06:01.201Z,73.8
2016-08-22T03:06:25.338Z,73.7
2016-08-22T03:06:49.508Z,73.7
2016-08-22T03:07:13.641Z,73.7
2016-08-22T03:07:37.743Z,74
2016-08-22T03:08:01.885Z,74.1
2016-08-22T03:08:26.032Z,74.2
2016-08-22T03:08:50.145Z,74
2016-08-22T03:09:14.270Z,73.5
2016-08-22T03:09:38.406Z,73.6
2016-08-22T03:10:02.519Z,73.5
2016-08-22T03:10:26.648Z,74.1
2016-08-22T03:10:50.779Z,74
2016-08-22T03:11:14.920Z,73.9
2016-08-22T03:11:39.089Z,73.9
2016-08-22T03:12:03.187Z,74
2016-08-22T03:12:27.305Z,74
2016-08-22T03:12:51.434Z,74
2016-08-22T03:13:15.529Z,74.1
2016-08-22T03:13:39.663Z,73.9
2016-08-22T03:14:03.770Z,73.9
2016-08-22T03:14:27.925Z,74
2016-08-22T03:14:52.071Z,73.7
2016-08-22T03:15:16.230Z,73.9
2016-08-22T03:15:40.345Z,73.7
2016-08-22T03:16:04.469Z,74
2016-08-22T03:16:28.579Z,73.8
2016-08-22T03:16:52.711Z,73.8
2016-08-22T03:17:16.924Z,73.5
2016-08-22T03:17:41.070Z,73.6
2016-08-22T03:18:05.234Z,73.8
2016-08-22T03:18:29.356Z,73.7
2016-08-22T03:18:53.505Z,73.8
2016-08-22T03:19:17.649Z,73.6
2016-08-22T03:19:41.789Z,74.1
2016-08-22T03:20:05.954Z,74
2016-08-22T03:20:30.112Z,74
2016-08-22T03:20:54.236Z,73.9
2016-08-22T03:21:18.357Z,73.9
2016-08-22T03:21:42.519Z,73.9
2016-08-22T03:22:06.642Z,73.8
2016-08-22T03:22:30.753Z,73.9
2016-08-22T03:22:54.919Z,74.3
2016-08-22T03:23:19.051Z,74.5
2016-08-22T03:23:43.165Z,74.6
2016-08-22T03:24:07.284Z,73.9
2016-08-22T03:24:31.429Z,74.2
2016-08-22T03:24:55.562Z,74.2
2016-08-22T03:25:19.667Z,74.5
2016-08-22T03:25:43.793Z,74.4
2016-08-22T03:26:07.927Z,74.1
2016-08-22T03:26:32.052Z,73.8
2016-08-22T03:26:56.171Z,73.8
2016-08-22T03:27:20.287Z,73.4
2016-08-22T03:27:44.422Z,73.4
2016-08-22T03:28:08.558Z,73.8
2016-08-22T03:28:32.669Z,73.7
2016-08-22T03:28:56.829Z,73.6
2016-08-22T03:29:20.953Z,74
2016-08-22T03:29:45.068Z,73.9
2016-08-22T03:30:09.198Z,73.6
2016-08-22T03:30:33.313Z,73.4
2016-08-22T03:30:57.458Z,73.4
2016-08-22T03:31:21.611Z,73.4
2016-08-22T03:31:45.727Z,73.8
2016-08-22T03:32:09.865Z,73.9
2016-08-22T03:32:34.008Z,73.8
2016-08-22T03:32:58.143Z,73.7
2016-08-22T03:33:22.273Z,73.9
2016-08-22T03:33:46.397Z,73.5
2016-08-22T03:34:10.497Z,73.8
2016-08-22T03:34:34.661Z,73.7
2016-08-22T03:34:58.811Z,73.9
2016-08-22T03:35:22.956Z,73.7
2016-08-22T03:35:47.080Z,73.9
2016-08-22T03:36:11.216Z,73.9
2016-08-22T03:36:35.346Z,73.7
2016-08-22T03:36:59.502Z,74.2
2016-08-22T03:37:23.629Z,74.1
2016-08-22T03:37:58.532Z,74.1
2016-08-22T03:38:22.704Z,73.9
2016-08-22T03:38:46.842Z,73.7
2016-08-22T03:39:10.964Z,74
2016-08-22T03:39:35.102Z,74.1
2016-08-22T03:39:59.241Z,74.1
2016-08-22T03:40:23.363Z,74.8
2016-08-22T03:40:47.506Z,74.4
2016-08-22T03:41:11.633Z,74.4
2016-08-22T03:41:35.741Z,74.4
2016-08-22T03:41:59.858Z,74.6
2016-08-22T03:42:24.016Z,74.4
2016-08-22T03:42:48.211Z,74.4
2016-08-22T03:43:12.329Z,74.3
2016-08-22T03:43:36.480Z,74.5
2016-08-22T03:44:00.632Z,74.8
2016-08-22T03:44:24.759Z,74.6
2016-08-22T03:44:48.878Z,74.5
2016-08-22T03:45:13.033Z,74.6
2016-08-22T03:45:37.173Z,74.8
2016-08-22T03:46:01.305Z,74.6
2016-08-22T03:46:25.430Z,75.1
2016-08-22T03:46:49.568Z,75
2016-08-22T03:47:13.714Z,74.8
2016-08-22T03:47:37.825Z,75.3
2016-08-22T03:48:01.946Z,74.7
2016-08-22T03:48:26.065Z,75.1
2016-08-22T03:48:50.196Z,75
2016-08-22T03:49:14.317Z,74.7
2016-08-22T03:49:38.475Z,75
2016-08-22T03:50:02.598Z,74.5
2016-08-22T03:50:26.718Z,74.9
2016-08-22T03:50:50.850Z,75
2016-08-22T03:51:15.039Z,74.9
2016-08-22T03:51:39.156Z,74.9
2016-08-22T03:52:03.311Z,74.8
2016-08-22T03:52:27.434Z,75.1
2016-08-22T03:52:51.547Z,75
2016-08-22T03:53:15.671Z,74.9
2016-08-22T03:53:39.823Z,74.8
2016-08-22T03:54:03.964Z,75.4
2016-08-22T03:54:28.103Z,75.4
2016-08-22T03:54:52.201Z,75.4
2016-08-22T03:55:16.319Z,75.4
2016-08-22T03:55:40.447Z,74.9
2016-08-22T03:56:04.569Z,74.8
2016-08-22T03:56:28.705Z,75
2016-08-22T03:56:52.868Z,75.2
2016-08-22T03:57:17.000Z,75.1
2016-08-22T03:57:41.126Z,74.9
2016-08-22T03:58:05.285Z,74.9
2016-08-22T03:58:29.459Z,74.9
2016-08-22T03:58:53.595Z,75
2016-08-22T03:59:17.722Z,75.2
2016-08-22T03:59:41.876Z,75.3
2016-08-22T04:00:05.994Z,75.3
2016-08-22T04:00:30.100Z,74.6
2016-08-22T04:00:54.224Z,74.9
2016-08-22T04:01:18.388Z,75.1
2016-08-22T04:01:42.507Z,75
2016-08-22T04:02:06.634Z,74.8
2016-08-22T04:02:30.806Z,74.9
2016-08-22T04:02:54.944Z,74.5
2016-08-22T04:03:19.067Z,74.9
2016-08-22T04:03:43.179Z,74.6
2016-08-22T04:04:07.314Z,74.8
2016-08-22T04:04:31.459Z,74.7
2016-08-22T04:04:55.596Z,74.7
2016-08-22T04:05:19.732Z,74.9
2016-08-22T04:05:43.870Z,74.9
2016-08-22T04:06:08.001Z,74.8
2016-08-22T04:06:32.143Z,74.9
2016-08-22T04:06:56.283Z,75
2016-08-22T04:07:20.407Z,74.9
2016-08-22T04:07:44.550Z,75.2
2016-08-22T04:08:08.677Z,75
2016-08-22T04:08:32.781Z,74.5
2016-08-22T04:08:56.916Z,74.5
2016-08-22T04:09:21.007Z,74.8
2016-08-22T04:09:45.143Z,74.5
2016-08-22T04:10:09.290Z,74.8
2016-08-22T04:10:33.438Z,74.9
2016-08-22T04:10:57.558Z,75.2
2016-08-22T04:11:21.683Z,75.2
2016-08-22T04:11:45.822Z,74.8
2016-08-22T04:12:09.982Z,74.8
2016-08-22T04:12:34.132Z,74.9
2016-08-22T04:12:58.342Z,74.9
2016-08-22T04:13:22.513Z,74.9
2016-08-22T04:13:46.620Z,75.5
2016-08-22T04:14:10.772Z,75.3
2016-08-22T04:14:34.907Z,75.4
2016-08-22T04:14:59.017Z,75.3
2016-08-22T04:15:23.111Z,75.7
2016-08-22T04:15:47.236Z,75.8
2016-08-22T04:16:11.363Z,75.3
2016-08-22T04:16:35.519Z,75.4
2016-08-22T04:16:59.652Z,75.5
2016-08-22T04:17:23.783Z,75.8
2016-08-22T04:17:48.837Z,75.9
2016-08-22T04:18:12.974Z,75.8
2016-08-22T04:18:37.089Z,75.8
2016-08-22T04:19:01.226Z,75.5
2016-08-22T04:19:25.409Z,75.9
2016-08-22T04:19:49.586Z,75.5
2016-08-22T04:20:13.739Z,75.6
2016-08-22T04:20:37.915Z,75.7
2016-08-22T04:21:02.031Z,75.4
2016-08-22T04:21:26.200Z,75.4
2016-08-22T04:21:50.375Z,75.4
2016-08-22T04:22:14.577Z,75.7
2016-08-22T04:22:38.695Z,75.7
2016-08-22T04:23:02.811Z,75.5
2016-08-22T04:23:26.944Z,75.7
2016-08-22T04:23:51.099Z,75.6
2016-08-22T04:24:15.263Z,75.4
2016-08-22T04:24:39.425Z,75.4
2016-08-22T04:25:03.566Z,75.6
2016-08-22T04:25:27.713Z,76
2016-08-22T04:25:51.851Z,75.9
2016-08-22T04:26:16.022Z,75.9
2016-08-22T04:26:40.139Z,75.5
2016-08-22T04:27:04.257Z,75.7
2016-08-22T04:27:28.388Z,75.9
2016-08-22T04:27:52.531Z,75.8
2016-08-22T04:28:17.253Z,75.7
2016-08-22T04:28:41.374Z,75.4
2016-08-22T04:29:05.524Z,75.6
2016-08-22T04:29:29.672Z,75.7
2016-08-22T04:29:53.797Z,75.8
2016-08-22T04:30:17.948Z,75.4
2016-08-22T04:30:42.099Z,75.8
2016-08-22T04:31:06.246Z,75.7
2016-08-22T04:31:30.351Z,76.2
2016-08-22T04:31:54.479Z,76
2016-08-22T04:32:18.631Z,76.1
2016-08-22T04:32:42.751Z,75.5
2016-08-22T04:33:06.892Z,75.6
2016-08-22T04:33:31.046Z,75.9
2016-08-22T04:33:55.189Z,76.3
2016-08-22T04:34:19.319Z,76.3
2016-08-22T04:34:43.453Z,75.6
2016-08-22T04:35:07.619Z,76
2016-08-22T04:35:31.740Z,75.9
2016-08-22T04:35:55.864Z,76
2016-08-22T04:36:20.030Z,75.9
2016-08-22T04:36:44.190Z,75.9
2016-08-22T04:37:08.322Z,76.7
2016-08-22T04:37:32.490Z,76.2
2016-08-22T04:37:56.619Z,75.9
2016-08-22T04:38:20.758Z,76.5
2016-08-22T04:38:44.882Z,76.5
2016-08-22T04:39:09.019Z,76.6
2016-08-22T04:39:33.141Z,76.3
2016-08-22T04:39:57.292Z,76.6
2016-08-22T04:40:21.421Z,76.8
2016-08-22T04:40:45.547Z,76.3
2016-08-22T04:41:09.661Z,76.7
2016-08-22T04:41:33.776Z,76.7
2016-08-22T04:41:57.916Z,76.2
2016-08-22T04:42:22.060Z,76.4
2016-08-22T04:42:46.189Z,76.4
2016-08-22T04:43:10.347Z,76.3
2016-08-22T04:43:34.456Z,76.4
2016-08-22T04:43:58.596Z,76.6
2016-08-22T04:44:22.785Z,76.8
2016-08-22T04:44:46.906Z,76.6
2016-08-22T04:45:11.044Z,76.4
2016-08-22T04:45:35.211Z,76.6
2016-08-22T04:45:59.356Z,76
2016-08-22T04:46:23.466Z,76.7
2016-08-22T04:46:47.590Z,76.5
2016-08-22T04:47:11.753Z,76.5
2016-08-22T04:47:35.921Z,76.9
2016-08-22T04:48:00.065Z,76.8
2016-08-22T04:48:24.223Z,76.5
2016-08-22T04:48:48.358Z,76.5
2016-08-22T04:49:12.493Z,76.7
2016-08-22T04:49:36.635Z,76.7
2016-08-22T04:50:00.776Z,76.3
2016-08-22T04:50:24.934Z,76.5
2016-08-22T04:50:49.061Z,76.6
2016-08-22T04:51:13.211Z,76.4
2016-08-22T04:51:37.338Z,76.3
2016-08-22T04:52:01.494Z,76.3
2016-08-22T04:52:25.632Z,76.3
2016-08-22T04:52:49.757Z,76.3
2016-08-22T04:53:13.926Z,76.7
2016-08-22T04:53:38.043Z,76.7
2016-08-22T04:54:02.190Z,76.8
2016-08-22T04:54:26.349Z,76.5
2016-08-22T04:54:50.483Z,76.5
2016-08-22T04:55:14.617Z,76.6
2016-08-22T04:55:38.742Z,76.3
2016-08-22T04:56:02.886Z,76.3
2016-08-22T04:56:27.025Z,76.7
2016-08-22T04:56:51.168Z,76.6
2016-08-22T04:57:15.288Z,76.1
2016-08-22T04:57:39.423Z,76.1
2016-08-22T04:58:03.650Z,76.3
2016-08-22T04:58:27.767Z,76
2016-08-22T04:58:51.901Z,76.2
2016-08-22T04:59:16.030Z,76.3
2016-08-22T04:59:40.152Z,76.2
2016-08-22T05:00:04.295Z,76.7
2016-08-22T05:00:28.433Z,76.4
2016-08-22T05:00:52.551Z,76.4
2016-08-22T05:01:16.694Z,76.6
2016-08-22T05:01:40.867Z,76.6
2016-08-22T05:02:05.011Z,76.6
2016-08-22T05:02:29.117Z,76.2
2016-08-22T05:02:53.281Z,76.1
2016-08-22T05:03:17.418Z,76.1
2016-08-22T05:03:41.566Z,76.1
2016-08-22T05:04:05.688Z,76.1
2016-08-22T05:04:29.816Z,76
2016-08-22T05:04:53.943Z,76.5
2016-08-22T05:05:18.062Z,76.1
2016-08-22T05:05:42.216Z,76.1
2016-08-22T05:06:06.404Z,76.1
2016-08-22T05:06:30.542Z,76.2
2016-08-22T05:06:54.661Z,76.2
2016-08-22T05:07:18.811Z,76
2016-08-22T05:07:42.944Z,76.1
2016-08-22T05:08:07.115Z,76.3
2016-08-22T05:08:31.240Z,75.7
2016-08-22T05:08:55.387Z,75.7
2016-08-22T05:09:19.522Z,75.9
2016-08-22T05:09:43.667Z,75.7
2016-08-22T05:10:07.812Z,75.9
2016-08-22T05:10:31.964Z,75.9
2016-08-22T05:10:56.107Z,76
2016-08-22T05:11:20.230Z,76
2016-08-22T05:11:44.360Z,75.8
2016-08-22T05:12:08.522Z,75.6
2016-08-22T05:12:32.800Z,75.7
2016-08-22T05:12:56.915Z,75.4
2016-08-22T05:13:21.037Z,75.8
2016-08-22T05:13:45.141Z,75.6
2016-08-22T05:14:09.306Z,75.7
2016-08-22T05:14:33.448Z,75.7
2016-08-22T05:14:57.590Z,75.9
2016-08-22T05:15:21.720Z,75.4
2016-08-22T05:15:45.827Z,75.5
2016-08-22T05:16:09.974Z,75.4
2016-08-22T05:16:34.084Z,75.3
2016-08-22T05:16:58.233Z,75.6
2016-08-22T05:17:22.350Z,75.4
2016-08-22T05:17:46.471Z,75.5
2016-08-22T05:18:10.618Z,75.3
2016-08-22T05:18:34.748Z,75.9
2016-08-22T05:18:58.879Z,75.5
2016-08-22T05:19:23.022Z,75.5
2016-08-22T05:19:47.161Z,75.3
2016-08-22T05:20:11.257Z,75.4
2016-08-22T05:20:35.439Z,75.1
2016-08-22T05:20:59.588Z,75.5
2016-08-22T05:21:23.710Z,75.3
2016-08-22T05:21:47.824Z,75.3
2016-08-22T05:22:11.963Z,75.3
2016-08-22T05:22:36.105Z,75.3
2016-08-22T05:23:00.229Z,75.3
2016-08-22T05:23:24.376Z,75.2
2016-08-22T05:23:48.502Z,75.3
2016-08-22T05:24:12.623Z,75.3